sensor_id;sensor_type;location;lat;lon;timestamp;temperature;humidity
12233;DHT22;6179;51.748;8.728;2023-01-05T00:06:02;10.90;98.30
12233;DHT22;6179;51.748;8.728;2023-01-05T00:12:05;11.00;98.30
12233;DHT22;6179;51.748;8.728;2023-01-05T00:18:25;10.60;98.30
12233;DHT22;6179;51.748;8.728;2023-01-05T00:24:44;10.50;98.30
12233;DHT22;6179;51.748;8.728;2023-01-05T00:30:46;10.50;98.30
12233;DHT22;6179;51.748;8.728;2023-01-05T00:36:47;10.40;98.30
12233;DHT22;6179;51.748;8.728;2023-01-05T00:42:48;10.60;98.30
12233;DHT22;6179;51.748;8.728;2023-01-05T00:48:48;10.50;98.30
12233;DHT22;6179;51.748;8.728;2023-01-05T00:54:49;10.40;98.30
12233;DHT22;6179;51.748;8.728;2023-01-05T01:00:50;10.50;98.30
12233;DHT22;6179;51.748;8.728;2023-01-05T01:06:51;10.30;98.30
12233;DHT22;6179;51.748;8.728;2023-01-05T01:12:53;10.40;98.30
12233;DHT22;6179;51.748;8.728;2023-01-05T01:18:55;10.50;98.30
12233;DHT22;6179;51.748;8.728;2023-01-05T01:24:56;10.50;98.30
12233;DHT22;6179;51.748;8.728;2023-01-05T01:30:57;10.60;98.30
12233;DHT22;6179;51.748;8.728;2023-01-05T01:36:57;10.60;98.30
12233;DHT22;6179;51.748;8.728;2023-01-05T01:42:59;10.50;98.30
12233;DHT22;6179;51.748;8.728;2023-01-05T01:49:02;10.50;98.30
12233;DHT22;6179;51.748;8.728;2023-01-05T01:55:08;10.60;98.30
12233;DHT22;6179;51.748;8.728;2023-01-05T02:01:10;10.60;98.30
12233;DHT22;6179;51.748;8.728;2023-01-05T02:07:12;10.40;98.30
12233;DHT22;6179;51.748;8.728;2023-01-05T02:40:16;10.30;98.30
12233;DHT22;6179;51.748;8.728;2023-01-05T02:46:21;10.40;98.30
12233;DHT22;6179;51.748;8.728;2023-01-05T02:52:22;10.40;98.30
12233;DHT22;6179;51.748;8.728;2023-01-05T02:58:31;10.40;98.30
12233;DHT22;6179;51.748;8.728;2023-01-05T03:04:48;10.40;98.30
12233;DHT22;6179;51.748;8.728;2023-01-05T03:11:03;10.40;98.30
12233;DHT22;6179;51.748;8.728;2023-01-05T03:17:47;10.20;98.30
12233;DHT22;6179;51.748;8.728;2023-01-05T03:23:52;10.20;98.30
12233;DHT22;6179;51.748;8.728;2023-01-05T03:30:14;10.10;98.30
12233;DHT22;6179;51.748;8.728;2023-01-05T03:36:44;9.80;98.30
12233;DHT22;6179;51.748;8.728;2023-01-05T03:42:51;9.70;98.30
12233;DHT22;6179;51.748;8.728;2023-01-05T03:48:51;9.70;98.30
12233;DHT22;6179;51.748;8.728;2023-01-05T03:54:52;9.90;98.30
12233;DHT22;6179;51.748;8.728;2023-01-05T04:00:53;10.00;98.30
12233;DHT22;6179;51.748;8.728;2023-01-05T04:06:54;10.00;98.30
12233;DHT22;6179;51.748;8.728;2023-01-05T04:12:54;9.80;98.30
12233;DHT22;6179;51.748;8.728;2023-01-05T04:18:55;9.80;98.30
12233;DHT22;6179;51.748;8.728;2023-01-05T04:24:56;10.00;98.30
12233;DHT22;6179;51.748;8.728;2023-01-05T04:30:57;10.00;98.30
12233;DHT22;6179;51.748;8.728;2023-01-05T04:36:58;9.80;98.30
12233;DHT22;6179;51.748;8.728;2023-01-05T04:42:59;9.90;98.30
12233;DHT22;6179;51.748;8.728;2023-01-05T04:48:59;9.60;98.30
12233;DHT22;6179;51.748;8.728;2023-01-05T04:55:00;9.70;98.30
12233;DHT22;6179;51.748;8.728;2023-01-05T05:01:01;9.60;98.30
12233;DHT22;6179;51.748;8.728;2023-01-05T05:07:02;9.70;98.30
12233;DHT22;6179;51.748;8.728;2023-01-05T05:13:02;9.80;98.30
12233;DHT22;6179;51.748;8.728;2023-01-05T05:19:03;9.80;98.30
12233;DHT22;6179;51.748;8.728;2023-01-05T05:25:04;9.70;98.30
12233;DHT22;6179;51.748;8.728;2023-01-05T05:31:06;9.70;98.30
12233;DHT22;6179;51.748;8.728;2023-01-05T05:37:07;9.80;98.30
12233;DHT22;6179;51.748;8.728;2023-01-05T05:43:08;9.70;98.30
12233;DHT22;6179;51.748;8.728;2023-01-05T05:49:08;9.70;98.30
12233;DHT22;6179;51.748;8.728;2023-01-05T05:55:09;9.70;98.30
12233;DHT22;6179;51.748;8.728;2023-01-05T06:01:10;9.50;98.30
12233;DHT22;6179;51.748;8.728;2023-01-05T06:07:11;9.50;98.30
12233;DHT22;6179;51.748;8.728;2023-01-05T06:13:12;9.40;98.30
12233;DHT22;6179;51.748;8.728;2023-01-05T06:19:13;9.40;98.30
12233;DHT22;6179;51.748;8.728;2023-01-05T06:25:14;9.50;98.30
12233;DHT22;6179;51.748;8.728;2023-01-05T06:31:15;9.40;98.30
12233;DHT22;6179;51.748;8.728;2023-01-05T06:37:16;9.20;98.30
12233;DHT22;6179;51.748;8.728;2023-01-05T06:43:17;9.40;98.30
12233;DHT22;6179;51.748;8.728;2023-01-05T06:49:17;9.20;98.30
12233;DHT22;6179;51.748;8.728;2023-01-05T06:55:18;9.40;98.30
12233;DHT22;6179;51.748;8.728;2023-01-05T07:01:21;9.50;98.30
12233;DHT22;6179;51.748;8.728;2023-01-05T07:07:21;9.40;98.30
12233;DHT22;6179;51.748;8.728;2023-01-05T07:13:22;9.70;98.30
12233;DHT22;6179;51.748;8.728;2023-01-05T07:19:23;9.40;98.30
12233;DHT22;6179;51.748;8.728;2023-01-05T07:25:24;9.30;98.30
12233;DHT22;6179;51.748;8.728;2023-01-05T07:31:30;9.50;98.30
12233;DHT22;6179;51.748;8.728;2023-01-05T07:37:31;9.30;98.30
12233;DHT22;6179;51.748;8.728;2023-01-05T07:43:32;9.40;98.30
12233;DHT22;6179;51.748;8.728;2023-01-05T07:49:32;9.40;98.30
12233;DHT22;6179;51.748;8.728;2023-01-05T07:55:33;9.30;98.30
12233;DHT22;6179;51.748;8.728;2023-01-05T08:01:34;9.40;98.30
12233;DHT22;6179;51.748;8.728;2023-01-05T08:07:35;9.30;98.30
12233;DHT22;6179;51.748;8.728;2023-01-05T08:13:36;9.50;98.30
12233;DHT22;6179;51.748;8.728;2023-01-05T08:19:56;9.60;98.30
12233;DHT22;6179;51.748;8.728;2023-01-05T08:26:01;9.50;98.30
12233;DHT22;6179;51.748;8.728;2023-01-05T08:32:04;9.60;98.30
12233;DHT22;6179;51.748;8.728;2023-01-05T08:38:05;9.50;98.30
12233;DHT22;6179;51.748;8.728;2023-01-05T08:44:10;9.50;98.30
12233;DHT22;6179;51.748;8.728;2023-01-05T08:50:13;9.60;98.30
12233;DHT22;6179;51.748;8.728;2023-01-05T08:56:14;9.50;98.30
12233;DHT22;6179;51.748;8.728;2023-01-05T09:02:15;9.60;98.30
12233;DHT22;6179;51.748;8.728;2023-01-05T09:08:16;9.60;98.30
12233;DHT22;6179;51.748;8.728;2023-01-05T09:14:17;9.70;98.30
12233;DHT22;6179;51.748;8.728;2023-01-05T09:20:18;9.70;98.30
12233;DHT22;6179;51.748;8.728;2023-01-05T09:26:19;9.80;98.30
12233;DHT22;6179;51.748;8.728;2023-01-05T09:32:20;9.70;98.30
12233;DHT22;6179;51.748;8.728;2023-01-05T09:38:22;9.80;98.30
12233;DHT22;6179;51.748;8.728;2023-01-05T09:45:21;9.90;98.30
12233;DHT22;6179;51.748;8.728;2023-01-05T09:51:04;9.90;98.30
12233;DHT22;6179;51.748;8.728;2023-01-05T09:57:16;9.80;98.30
12233;DHT22;6179;51.748;8.728;2023-01-05T10:03:22;9.80;98.30
12233;DHT22;6179;51.748;8.728;2023-01-05T10:09:29;9.80;98.30
12233;DHT22;6179;51.748;8.728;2023-01-05T10:15:40;9.90;98.30
12233;DHT22;6179;51.748;8.728;2023-01-05T10:46:35;10.20;98.30
12233;DHT22;6179;51.748;8.728;2023-01-05T10:52:41;10.10;98.30
12233;DHT22;6179;51.748;8.728;2023-01-05T10:58:44;10.20;98.30
12233;DHT22;6179;51.748;8.728;2023-01-05T11:04:47;10.30;98.30
12233;DHT22;6179;51.748;8.728;2023-01-05T11:10:54;10.20;98.30
12233;DHT22;6179;51.748;8.728;2023-01-05T11:17:03;10.30;98.30
12233;DHT22;6179;51.748;8.728;2023-01-05T11:23:32;10.30;98.30
12233;DHT22;6179;51.748;8.728;2023-01-05T11:29:35;10.40;98.30
12233;DHT22;6179;51.748;8.728;2023-01-05T11:35:37;10.50;98.30
12233;DHT22;6179;51.748;8.728;2023-01-05T11:41:38;10.70;98.30
12233;DHT22;6179;51.748;8.728;2023-01-05T11:47:43;10.70;98.30
12233;DHT22;6179;51.748;8.728;2023-01-05T11:53:47;10.70;98.30
12233;DHT22;6179;51.748;8.728;2023-01-05T11:59:48;10.70;98.30
12233;DHT22;6179;51.748;8.728;2023-01-05T12:06:20;10.60;98.30
12233;DHT22;6179;51.748;8.728;2023-01-05T12:39:41;10.60;98.30
12233;DHT22;6179;51.748;8.728;2023-01-05T12:52:46;10.60;98.30
12233;DHT22;6179;51.748;8.728;2023-01-05T13:11:55;10.70;98.30
12233;DHT22;6179;51.748;8.728;2023-01-05T13:18:03;10.70;98.30
12233;DHT22;6179;51.748;8.728;2023-01-05T13:24:10;10.70;98.30
12233;DHT22;6179;51.748;8.728;2023-01-05T13:30:37;10.70;98.30
12233;DHT22;6179;51.748;8.728;2023-01-05T13:43:27;10.60;98.30
12233;DHT22;6179;51.748;8.728;2023-01-05T13:56:23;10.50;98.30
12233;DHT22;6179;51.748;8.728;2023-01-05T14:02:36;10.60;98.30
12233;DHT22;6179;51.748;8.728;2023-01-05T14:09:18;10.60;98.30
12233;DHT22;6179;51.748;8.728;2023-01-05T14:15:42;10.50;98.30
12233;DHT22;6179;51.748;8.728;2023-01-05T14:34:28;10.80;98.30
12233;DHT22;6179;51.748;8.728;2023-01-05T14:46:52;10.60;98.30
12233;DHT22;6179;51.748;8.728;2023-01-05T14:53:40;10.60;98.30
12233;DHT22;6179;51.748;8.728;2023-01-05T14:59:43;10.50;98.30
12233;DHT22;6179;51.748;8.728;2023-01-05T15:06:12;10.60;98.30
12233;DHT22;6179;51.748;8.728;2023-01-05T15:25:04;10.60;98.30
12233;DHT22;6179;51.748;8.728;2023-01-05T15:37:47;10.60;98.30
12233;DHT22;6179;51.748;8.728;2023-01-05T15:43:51;10.60;98.30
12233;DHT22;6179;51.748;8.728;2023-01-05T15:49:57;10.40;98.30
12233;DHT22;6179;51.748;8.728;2023-01-05T15:56:00;10.20;98.30
12233;DHT22;6179;51.748;8.728;2023-01-05T16:02:32;10.50;98.30
12233;DHT22;6179;51.748;8.728;2023-01-05T16:08:39;10.70;98.30
12233;DHT22;6179;51.748;8.728;2023-01-05T16:14:44;11.00;98.30
12233;DHT22;6179;51.748;8.728;2023-01-05T16:20:47;10.70;98.30
12233;DHT22;6179;51.748;8.728;2023-01-05T16:26:52;10.10;98.30
12233;DHT22;6179;51.748;8.728;2023-01-05T16:33:32;10.30;98.30
12233;DHT22;6179;51.748;8.728;2023-01-05T16:39:36;10.40;98.30
12233;DHT22;6179;51.748;8.728;2023-01-05T16:45:39;10.40;98.30
12233;DHT22;6179;51.748;8.728;2023-01-05T16:51:40;10.10;98.30
12233;DHT22;6179;51.748;8.728;2023-01-05T16:57:42;10.30;98.30
12233;DHT22;6179;51.748;8.728;2023-01-05T17:03:43;10.30;98.30
12233;DHT22;6179;51.748;8.728;2023-01-05T17:09:44;9.60;98.30
12233;DHT22;6179;51.748;8.728;2023-01-05T17:15:47;9.40;98.30
12233;DHT22;6179;51.748;8.728;2023-01-05T17:21:55;9.60;98.30
12233;DHT22;6179;51.748;8.728;2023-01-05T17:27:57;9.20;98.30
12233;DHT22;6179;51.748;8.728;2023-01-05T17:33:58;9.10;98.30
12233;DHT22;6179;51.748;8.728;2023-01-05T17:39:59;9.00;98.30
12233;DHT22;6179;51.748;8.728;2023-01-05T17:45:59;9.00;98.30
12233;DHT22;6179;51.748;8.728;2023-01-05T17:52:00;9.00;98.30
12233;DHT22;6179;51.748;8.728;2023-01-05T17:58:01;9.20;98.30
12233;DHT22;6179;51.748;8.728;2023-01-05T18:04:03;9.00;98.30
12233;DHT22;6179;51.748;8.728;2023-01-05T18:10:06;9.30;98.30
12233;DHT22;6179;51.748;8.728;2023-01-05T18:16:10;9.20;98.30
12233;DHT22;6179;51.748;8.728;2023-01-05T18:22:11;9.40;98.30
12233;DHT22;6179;51.748;8.728;2023-01-05T18:28:12;9.70;98.30
12233;DHT22;6179;51.748;8.728;2023-01-05T18:34:13;9.90;98.30
12233;DHT22;6179;51.748;8.728;2023-01-05T18:40:14;9.80;98.30
12233;DHT22;6179;51.748;8.728;2023-01-05T18:46:15;9.60;98.30
12233;DHT22;6179;51.748;8.728;2023-01-05T18:52:16;9.50;98.30
12233;DHT22;6179;51.748;8.728;2023-01-05T18:58:17;9.80;98.30
12233;DHT22;6179;51.748;8.728;2023-01-05T19:04:18;9.80;98.30
12233;DHT22;6179;51.748;8.728;2023-01-05T19:10:19;9.70;98.30
12233;DHT22;6179;51.748;8.728;2023-01-05T19:16:23;9.80;98.30
12233;DHT22;6179;51.748;8.728;2023-01-05T19:22:26;10.00;98.30
12233;DHT22;6179;51.748;8.728;2023-01-05T19:28:28;10.10;98.30
12233;DHT22;6179;51.748;8.728;2023-01-05T19:34:29;9.80;98.30
12233;DHT22;6179;51.748;8.728;2023-01-05T19:40:30;9.90;98.30
12233;DHT22;6179;51.748;8.728;2023-01-05T19:46:31;9.80;98.30
12233;DHT22;6179;51.748;8.728;2023-01-05T19:52:35;10.10;98.30
12233;DHT22;6179;51.748;8.728;2023-01-05T19:58:37;10.20;98.30
12233;DHT22;6179;51.748;8.728;2023-01-05T20:04:38;10.20;98.30
12233;DHT22;6179;51.748;8.728;2023-01-05T20:10:39;10.40;98.30
12233;DHT22;6179;51.748;8.728;2023-01-05T20:16:42;10.50;98.30
12233;DHT22;6179;51.748;8.728;2023-01-05T20:22:44;10.50;98.30
12233;DHT22;6179;51.748;8.728;2023-01-05T20:28:45;10.50;98.30
12233;DHT22;6179;51.748;8.728;2023-01-05T20:34:55;10.50;98.30
12233;DHT22;6179;51.748;8.728;2023-01-05T20:40:59;10.60;98.30
12233;DHT22;6179;51.748;8.728;2023-01-05T20:46:59;10.40;98.30
12233;DHT22;6179;51.748;8.728;2023-01-05T20:53:02;10.60;98.30
12233;DHT22;6179;51.748;8.728;2023-01-05T20:59:15;10.70;98.30
12233;DHT22;6179;51.748;8.728;2023-01-05T21:05:18;10.50;98.30
12233;DHT22;6179;51.748;8.728;2023-01-05T21:11:20;10.20;98.30
12233;DHT22;6179;51.748;8.728;2023-01-05T21:17:25;10.30;98.30
12233;DHT22;6179;51.748;8.728;2023-01-05T21:23:26;10.10;98.30
12233;DHT22;6179;51.748;8.728;2023-01-05T21:29:27;10.20;98.30
12233;DHT22;6179;51.748;8.728;2023-01-05T21:35:27;10.30;98.30
12233;DHT22;6179;51.748;8.728;2023-01-05T21:41:32;10.30;98.30
12233;DHT22;6179;51.748;8.728;2023-01-05T21:47:54;10.30;98.30
12233;DHT22;6179;51.748;8.728;2023-01-05T21:53:56;10.30;98.30
12233;DHT22;6179;51.748;8.728;2023-01-05T22:00:16;10.50;98.30
12233;DHT22;6179;51.748;8.728;2023-01-05T22:06:17;10.50;98.30
12233;DHT22;6179;51.748;8.728;2023-01-05T22:12:18;10.50;98.30
12233;DHT22;6179;51.748;8.728;2023-01-05T22:18:21;10.60;98.30
12233;DHT22;6179;51.748;8.728;2023-01-05T22:24:22;10.40;98.30
12233;DHT22;6179;51.748;8.728;2023-01-05T22:30:23;10.20;98.30
12233;DHT22;6179;51.748;8.728;2023-01-05T22:36:27;10.20;98.30
12233;DHT22;6179;51.748;8.728;2023-01-05T22:42:29;10.30;98.30
12233;DHT22;6179;51.748;8.728;2023-01-05T22:48:37;10.10;98.30
12233;DHT22;6179;51.748;8.728;2023-01-05T22:54:40;10.10;98.30
12233;DHT22;6179;51.748;8.728;2023-01-05T23:00:40;10.00;98.30
12233;DHT22;6179;51.748;8.728;2023-01-05T23:06:42;10.40;98.30
12233;DHT22;6179;51.748;8.728;2023-01-05T23:12:43;10.40;98.30
12233;DHT22;6179;51.748;8.728;2023-01-05T23:18:44;10.50;98.30
12233;DHT22;6179;51.748;8.728;2023-01-05T23:24:45;10.30;98.30
12233;DHT22;6179;51.748;8.728;2023-01-05T23:30:48;10.10;98.30
12233;DHT22;6179;51.748;8.728;2023-01-05T23:36:51;10.40;98.30
12233;DHT22;6179;51.748;8.728;2023-01-05T23:42:51;10.30;98.30
12233;DHT22;6179;51.748;8.728;2023-01-05T23:48:52;10.30;98.30
12233;DHT22;6179;51.748;8.728;2023-01-05T23:54:53;10.40;98.30
